sensor_id;sensor_type;location;lat;lon;timestamp;pressure;altitude;pressure_sealevel;temperature
72405;BMP280;60395;52.020;113.548;2024-03-25T00:01:23;92954.25;;;13.62
72405;BMP280;60395;52.020;113.548;2024-03-25T00:04:26;92949.44;;;14.22
72405;BMP280;60395;52.020;113.548;2024-03-25T00:07:28;92950.13;;;13.95
72405;BMP280;60395;52.020;113.548;2024-03-25T00:10:30;92953.72;;;12.67
72405;BMP280;60395;52.020;113.548;2024-03-25T00:13:32;92951.97;;;11.00
72405;BMP280;60395;52.020;113.548;2024-03-25T00:16:34;92951.56;;;9.53
72405;BMP280;60395;52.020;113.548;2024-03-25T00:19:36;92951.69;;;9.41
72405;BMP280;60395;52.020;113.548;2024-03-25T00:22:39;92948.97;;;10.24
72405;BMP280;60395;52.020;113.548;2024-03-25T00:25:41;92950.78;;;11.38
72405;BMP280;60395;52.020;113.548;2024-03-25T00:28:44;92954.69;;;12.53
72405;BMP280;60395;52.020;113.548;2024-03-25T00:31:47;92957.88;;;13.48
72405;BMP280;60395;52.020;113.548;2024-03-25T00:34:48;92963.03;;;13.54
72405;BMP280;60395;52.020;113.548;2024-03-25T00:37:51;92963.72;;;12.62
72405;BMP280;60395;52.020;113.548;2024-03-25T00:40:53;92965.13;;;10.98
72405;BMP280;60395;52.020;113.548;2024-03-25T00:43:57;92956.56;;;8.90
72405;BMP280;60395;52.020;113.548;2024-03-25T00:46:59;92960.75;;;7.15
72405;BMP280;60395;52.020;113.548;2024-03-25T00:50:01;92966.16;;;6.04
72405;BMP280;60395;52.020;113.548;2024-03-25T00:53:03;92963.75;;;5.48
72405;BMP280;60395;52.020;113.548;2024-03-25T00:56:05;92959.66;;;5.23
72405;BMP280;60395;52.020;113.548;2024-03-25T00:59:08;92960.06;;;5.03
72405;BMP280;60395;52.020;113.548;2024-03-25T01:02:10;92963.09;;;4.81
72405;BMP280;60395;52.020;113.548;2024-03-25T01:05:12;92969.91;;;4.55
72405;BMP280;60395;52.020;113.548;2024-03-25T01:08:15;92967.50;;;4.21
72405;BMP280;60395;52.020;113.548;2024-03-25T01:11:17;92963.25;;;3.96
72405;BMP280;60395;52.020;113.548;2024-03-25T01:14:20;92959.22;;;3.86
72405;BMP280;60395;52.020;113.548;2024-03-25T01:17:22;92957.88;;;3.83
72405;BMP280;60395;52.020;113.548;2024-03-25T01:20:24;92952.06;;;3.85
72405;BMP280;60395;52.020;113.548;2024-03-25T01:23:27;92957.38;;;3.91
72405;BMP280;60395;52.020;113.548;2024-03-25T01:26:30;92951.69;;;4.05
72405;BMP280;60395;52.020;113.548;2024-03-25T01:29:32;92952.47;;;4.15
72405;BMP280;60395;52.020;113.548;2024-03-25T01:32:35;92948.81;;;4.30
72405;BMP280;60395;52.020;113.548;2024-03-25T01:35:37;92949.00;;;4.45
72405;BMP280;60395;52.020;113.548;2024-03-25T01:38:39;92947.25;;;4.61
72405;BMP280;60395;52.020;113.548;2024-03-25T01:41:41;92940.81;;;4.66
72405;BMP280;60395;52.020;113.548;2024-03-25T01:44:43;92939.56;;;4.71
72405;BMP280;60395;52.020;113.548;2024-03-25T01:47:45;92941.66;;;4.85
72405;BMP280;60395;52.020;113.548;2024-03-25T01:50:47;92941.78;;;4.95
72405;BMP280;60395;52.020;113.548;2024-03-25T01:53:50;92947.03;;;4.99
72405;BMP280;60395;52.020;113.548;2024-03-25T01:56:53;92946.34;;;4.99
72405;BMP280;60395;52.020;113.548;2024-03-25T01:59:57;92949.56;;;4.93
72405;BMP280;60395;52.020;113.548;2024-03-25T02:03:00;92951.41;;;4.82
72405;BMP280;60395;52.020;113.548;2024-03-25T02:06:07;92954.63;;;4.79
72405;BMP280;60395;52.020;113.548;2024-03-25T02:09:12;92954.63;;;4.79
72405;BMP280;60395;52.020;113.548;2024-03-25T02:12:14;92948.19;;;4.86
72405;BMP280;60395;52.020;113.548;2024-03-25T02:15:17;92943.75;;;4.99
72405;BMP280;60395;52.020;113.548;2024-03-25T02:18:20;92947.16;;;5.13
72405;BMP280;60395;52.020;113.548;2024-03-25T02:21:22;92948.56;;;5.22
72405;BMP280;60395;52.020;113.548;2024-03-25T02:24:26;92942.69;;;5.22
72405;BMP280;60395;52.020;113.548;2024-03-25T02:27:28;92947.94;;;5.26
72405;BMP280;60395;52.020;113.548;2024-03-25T02:30:33;92932.44;;;5.42
72405;BMP280;60395;52.020;113.548;2024-03-25T02:33:35;92930.50;;;5.43
72405;BMP280;60395;52.020;113.548;2024-03-25T02:36:38;92929.88;;;5.44
72405;BMP280;60395;52.020;113.548;2024-03-25T02:39:40;92925.38;;;5.53
72405;BMP280;60395;52.020;113.548;2024-03-25T02:42:43;92923.50;;;5.61
72405;BMP280;60395;52.020;113.548;2024-03-25T02:45:45;92923.56;;;5.73
72405;BMP280;60395;52.020;113.548;2024-03-25T02:48:47;92915.22;;;5.89
72405;BMP280;60395;52.020;113.548;2024-03-25T02:51:49;92916.59;;;6.06
72405;BMP280;60395;52.020;113.548;2024-03-25T02:54:52;92906.91;;;6.21
72405;BMP280;60395;52.020;113.548;2024-03-25T02:57:56;92899.78;;;6.34
72405;BMP280;60395;52.020;113.548;2024-03-25T03:00:58;92896.59;;;6.47
72405;BMP280;60395;52.020;113.548;2024-03-25T03:04:00;92890.78;;;6.61
72405;BMP280;60395;52.020;113.548;2024-03-25T03:07:03;92892.13;;;6.84
72405;BMP280;60395;52.020;113.548;2024-03-25T03:10:05;92892.84;;;7.05
72405;BMP280;60395;52.020;113.548;2024-03-25T03:13:10;92886.31;;;7.20
72405;BMP280;60395;52.020;113.548;2024-03-25T03:16:16;92885.00;;;7.21
72405;BMP280;60395;52.020;113.548;2024-03-25T03:19:18;92881.75;;;7.25
72405;BMP280;60395;52.020;113.548;2024-03-25T03:22:20;92868.69;;;7.35
72405;BMP280;60395;52.020;113.548;2024-03-25T03:25:22;92863.47;;;7.49
72405;BMP280;60395;52.020;113.548;2024-03-25T03:28:24;92855.59;;;7.63
72405;BMP280;60395;52.020;113.548;2024-03-25T03:31:26;92845.13;;;7.73
72405;BMP280;60395;52.020;113.548;2024-03-25T03:34:28;92839.84;;;7.77
72405;BMP280;60395;52.020;113.548;2024-03-25T03:37:30;92840.50;;;7.90
72405;BMP280;60395;52.020;113.548;2024-03-25T03:40:32;92828.03;;;8.06
72405;BMP280;60395;52.020;113.548;2024-03-25T03:43:34;92826.63;;;8.21
72405;BMP280;60395;52.020;113.548;2024-03-25T03:46:36;92822.66;;;8.37
72405;BMP280;60395;52.020;113.548;2024-03-25T03:49:38;92819.94;;;8.55
72405;BMP280;60395;52.020;113.548;2024-03-25T03:52:40;92808.75;;;8.68
72405;BMP280;60395;52.020;113.548;2024-03-25T03:55:42;92803.41;;;8.81
72405;BMP280;60395;52.020;113.548;2024-03-25T03:58:54;92800.09;;;8.88
72405;BMP280;60395;52.020;113.548;2024-03-25T04:01:56;92786.25;;;8.98
72405;BMP280;60395;52.020;113.548;2024-03-25T04:04:59;92799.19;;;9.16
72405;BMP280;60395;52.020;113.548;2024-03-25T04:08:05;92791.19;;;9.34
72405;BMP280;60395;52.020;113.548;2024-03-25T04:11:07;92793.63;;;9.48
72405;BMP280;60395;52.020;113.548;2024-03-25T04:14:10;92785.75;;;9.52
72405;BMP280;60395;52.020;113.548;2024-03-25T04:17:12;92790.25;;;9.62
72405;BMP280;60395;52.020;113.548;2024-03-25T04:20:15;92786.94;;;9.63
72405;BMP280;60395;52.020;113.548;2024-03-25T04:23:17;92774.38;;;9.74
72405;BMP280;60395;52.020;113.548;2024-03-25T04:26:19;92786.59;;;9.92
72405;BMP280;60395;52.020;113.548;2024-03-25T04:29:21;92787.31;;;9.88
72405;BMP280;60395;52.020;113.548;2024-03-25T04:32:23;92771.63;;;9.84
72405;BMP280;60395;52.020;113.548;2024-03-25T04:35:25;92777.41;;;9.95
72405;BMP280;60395;52.020;113.548;2024-03-25T04:38:28;92770.63;;;10.12
72405;BMP280;60395;52.020;113.548;2024-03-25T04:41:37;92764.38;;;10.36
72405;BMP280;60395;52.020;113.548;2024-03-25T04:44:40;92768.78;;;10.49
72405;BMP280;60395;52.020;113.548;2024-03-25T04:47:42;92767.06;;;10.34
72405;BMP280;60395;52.020;113.548;2024-03-25T04:50:44;92762.91;;;10.00
72405;BMP280;60395;52.020;113.548;2024-03-25T04:53:48;92756.56;;;9.81
72405;BMP280;60395;52.020;113.548;2024-03-25T04:56:50;92753.22;;;9.88
72405;BMP280;60395;52.020;113.548;2024-03-25T04:59:52;92751.75;;;10.01
72405;BMP280;60395;52.020;113.548;2024-03-25T05:02:55;92757.38;;;10.20
72405;BMP280;60395;52.020;113.548;2024-03-25T05:05:57;92754.44;;;10.44
72405;BMP280;60395;52.020;113.548;2024-03-25T05:08:59;92750.25;;;10.61
72405;BMP280;60395;52.020;113.548;2024-03-25T05:12:01;92733.41;;;10.87
72405;BMP280;60395;52.020;113.548;2024-03-25T05:15:04;92729.28;;;10.96
72405;BMP280;60395;52.020;113.548;2024-03-25T05:18:07;92732.28;;;10.74
72405;BMP280;60395;52.020;113.548;2024-03-25T05:21:10;92730.16;;;10.44
72405;BMP280;60395;52.020;113.548;2024-03-25T05:24:12;92725.66;;;10.38
72405;BMP280;60395;52.020;113.548;2024-03-25T05:27:14;92720.41;;;10.38
72405;BMP280;60395;52.020;113.548;2024-03-25T05:30:17;92721.75;;;10.35
72405;BMP280;60395;52.020;113.548;2024-03-25T05:33:19;92710.00;;;10.30
72405;BMP280;60395;52.020;113.548;2024-03-25T05:36:20;92699.97;;;10.41
72405;BMP280;60395;52.020;113.548;2024-03-25T05:39:23;92693.69;;;10.64
72405;BMP280;60395;52.020;113.548;2024-03-25T05:42:25;92701.41;;;10.74
72405;BMP280;60395;52.020;113.548;2024-03-25T05:45:27;92699.34;;;10.81
72405;BMP280;60395;52.020;113.548;2024-03-25T05:48:29;92705.78;;;10.88
72405;BMP280;60395;52.020;113.548;2024-03-25T05:51:32;92693.81;;;10.97
72405;BMP280;60395;52.020;113.548;2024-03-25T05:54:35;92694.97;;;11.06
72405;BMP280;60395;52.020;113.548;2024-03-25T05:57:36;92678.97;;;11.18
72405;BMP280;60395;52.020;113.548;2024-03-25T06:00:38;92680.88;;;11.22
72405;BMP280;60395;52.020;113.548;2024-03-25T06:03:41;92678.38;;;11.14
72405;BMP280;60395;52.020;113.548;2024-03-25T06:06:43;92672.00;;;11.05
72405;BMP280;60395;52.020;113.548;2024-03-25T06:09:44;92670.91;;;10.94
72405;BMP280;60395;52.020;113.548;2024-03-25T06:12:47;92666.88;;;10.97
72405;BMP280;60395;52.020;113.548;2024-03-25T06:15:49;92672.72;;;11.01
72405;BMP280;60395;52.020;113.548;2024-03-25T06:18:51;92652.78;;;10.77
72405;BMP280;60395;52.020;113.548;2024-03-25T06:21:54;92668.56;;;10.75
72405;BMP280;60395;52.020;113.548;2024-03-25T06:24:55;92666.97;;;10.91
72405;BMP280;60395;52.020;113.548;2024-03-25T06:27:59;92649.03;;;11.03
72405;BMP280;60395;52.020;113.548;2024-03-25T06:31:00;92652.34;;;11.02
72405;BMP280;60395;52.020;113.548;2024-03-25T06:34:21;92652.13;;;10.79
72405;BMP280;60395;52.020;113.548;2024-03-25T06:37:23;92649.53;;;10.75
72405;BMP280;60395;52.020;113.548;2024-03-25T06:40:25;92645.16;;;11.00
72405;BMP280;60395;52.020;113.548;2024-03-25T06:43:27;92636.78;;;11.24
72405;BMP280;60395;52.020;113.548;2024-03-25T06:46:29;92630.06;;;11.34
72405;BMP280;60395;52.020;113.548;2024-03-25T06:49:31;92631.75;;;11.45
72405;BMP280;60395;52.020;113.548;2024-03-25T06:52:33;92615.81;;;11.53
72405;BMP280;60395;52.020;113.548;2024-03-25T06:55:35;92622.38;;;11.54
72405;BMP280;60395;52.020;113.548;2024-03-25T06:58:37;92626.59;;;11.72
72405;BMP280;60395;52.020;113.548;2024-03-25T07:01:39;92626.97;;;11.84
72405;BMP280;60395;52.020;113.548;2024-03-25T07:04:41;92623.56;;;11.90
72405;BMP280;60395;52.020;113.548;2024-03-25T07:07:43;92618.59;;;11.78
72405;BMP280;60395;52.020;113.548;2024-03-25T07:10:45;92624.09;;;11.66
72405;BMP280;60395;52.020;113.548;2024-03-25T07:13:47;92620.22;;;11.63
72405;BMP280;60395;52.020;113.548;2024-03-25T07:16:49;92609.78;;;11.59
72405;BMP280;60395;52.020;113.548;2024-03-25T07:19:51;92610.03;;;11.49
72405;BMP280;60395;52.020;113.548;2024-03-25T07:22:54;92609.03;;;11.34
72405;BMP280;60395;52.020;113.548;2024-03-25T07:25:59;92603.16;;;11.29
72405;BMP280;60395;52.020;113.548;2024-03-25T07:29:01;92598.16;;;11.50
72405;BMP280;60395;52.020;113.548;2024-03-25T07:32:04;92597.06;;;11.69
72405;BMP280;60395;52.020;113.548;2024-03-25T07:35:06;92599.72;;;11.67
72405;BMP280;60395;52.020;113.548;2024-03-25T07:38:09;92601.09;;;11.64
72405;BMP280;60395;52.020;113.548;2024-03-25T07:41:11;92597.63;;;11.43
72405;BMP280;60395;52.020;113.548;2024-03-25T07:44:13;92596.03;;;11.25
72405;BMP280;60395;52.020;113.548;2024-03-25T07:47:15;92597.81;;;11.02
72405;BMP280;60395;52.020;113.548;2024-03-25T07:50:17;92591.72;;;10.77
72405;BMP280;60395;52.020;113.548;2024-03-25T07:53:19;92582.84;;;10.60
72405;BMP280;60395;52.020;113.548;2024-03-25T07:56:21;92581.47;;;10.63
72405;BMP280;60395;52.020;113.548;2024-03-25T07:59:23;92587.31;;;10.65
72405;BMP280;60395;52.020;113.548;2024-03-25T08:02:25;92575.44;;;10.68
72405;BMP280;60395;52.020;113.548;2024-03-25T08:05:29;92573.22;;;10.81
72405;BMP280;60395;52.020;113.548;2024-03-25T08:08:32;92584.19;;;10.92
72405;BMP280;60395;52.020;113.548;2024-03-25T08:11:34;92568.44;;;10.92
72405;BMP280;60395;52.020;113.548;2024-03-25T08:14:36;92576.19;;;10.98
72405;BMP280;60395;52.020;113.548;2024-03-25T08:17:38;92573.56;;;10.98
72405;BMP280;60395;52.020;113.548;2024-03-25T08:20:40;92573.66;;;10.94
72405;BMP280;60395;52.020;113.548;2024-03-25T08:23:45;92570.78;;;11.06
72405;BMP280;60395;52.020;113.548;2024-03-25T08:26:47;92562.66;;;11.18
72405;BMP280;60395;52.020;113.548;2024-03-25T08:29:50;92566.41;;;11.27
72405;BMP280;60395;52.020;113.548;2024-03-25T08:32:54;92562.53;;;11.24
72405;BMP280;60395;52.020;113.548;2024-03-25T08:35:57;92564.50;;;11.23
72405;BMP280;60395;52.020;113.548;2024-03-25T08:38:58;92556.13;;;11.17
72405;BMP280;60395;52.020;113.548;2024-03-25T08:42:00;92551.56;;;11.13
72405;BMP280;60395;52.020;113.548;2024-03-25T08:45:03;92549.69;;;11.10
72405;BMP280;60395;52.020;113.548;2024-03-25T08:48:05;92545.78;;;11.07
72405;BMP280;60395;52.020;113.548;2024-03-25T08:51:07;92552.44;;;11.04
72405;BMP280;60395;52.020;113.548;2024-03-25T08:54:09;92538.88;;;10.93
72405;BMP280;60395;52.020;113.548;2024-03-25T08:57:11;92549.56;;;10.83
72405;BMP280;60395;52.020;113.548;2024-03-25T09:00:14;92540.56;;;10.72
72405;BMP280;60395;52.020;113.548;2024-03-25T09:03:16;92546.63;;;10.64
72405;BMP280;60395;52.020;113.548;2024-03-25T09:06:19;92542.66;;;10.67
72405;BMP280;60395;52.020;113.548;2024-03-25T09:09:39;92532.22;;;10.63
72405;BMP280;60395;52.020;113.548;2024-03-25T09:13:01;92538.84;;;10.60
72405;BMP280;60395;52.020;113.548;2024-03-25T09:16:03;92541.50;;;10.58
72405;BMP280;60395;52.020;113.548;2024-03-25T09:19:07;92532.31;;;10.57
72405;BMP280;60395;52.020;113.548;2024-03-25T09:22:09;92545.44;;;10.57
72405;BMP280;60395;52.020;113.548;2024-03-25T09:25:11;92538.72;;;10.66
72405;BMP280;60395;52.020;113.548;2024-03-25T09:28:13;92540.78;;;10.62
72405;BMP280;60395;52.020;113.548;2024-03-25T09:31:15;92527.69;;;10.58
72405;BMP280;60395;52.020;113.548;2024-03-25T09:34:17;92529.19;;;10.49
72405;BMP280;60395;52.020;113.548;2024-03-25T09:37:19;92530.72;;;10.38
72405;BMP280;60395;52.020;113.548;2024-03-25T09:40:21;92526.31;;;10.26
72405;BMP280;60395;52.020;113.548;2024-03-25T09:43:53;92530.41;;;10.17
72405;BMP280;60395;52.020;113.548;2024-03-25T09:46:55;92528.66;;;10.05
72405;BMP280;60395;52.020;113.548;2024-03-25T09:49:59;92533.41;;;9.95
72405;BMP280;60395;52.020;113.548;2024-03-25T09:53:04;92536.22;;;9.83
72405;BMP280;60395;52.020;113.548;2024-03-25T09:56:25;92534.44;;;9.71
72405;BMP280;60395;52.020;113.548;2024-03-25T09:59:28;92529.44;;;9.55
72405;BMP280;60395;52.020;113.548;2024-03-25T10:02:30;92539.44;;;9.44
72405;BMP280;60395;52.020;113.548;2024-03-25T10:05:33;92533.75;;;9.28
72405;BMP280;60395;52.020;113.548;2024-03-25T10:08:35;92534.56;;;9.16
72405;BMP280;60395;52.020;113.548;2024-03-25T10:11:37;92534.09;;;9.01
72405;BMP280;60395;52.020;113.548;2024-03-25T10:14:43;92537.47;;;8.92
72405;BMP280;60395;52.020;113.548;2024-03-25T10:17:45;92542.84;;;8.80
72405;BMP280;60395;52.020;113.548;2024-03-25T10:20:50;92543.00;;;8.67
72405;BMP280;60395;52.020;113.548;2024-03-25T10:23:53;92544.47;;;8.52
72405;BMP280;60395;52.020;113.548;2024-03-25T10:26:57;92545.91;;;8.37
72405;BMP280;60395;52.020;113.548;2024-03-25T10:30:00;92543.44;;;8.23
72405;BMP280;60395;52.020;113.548;2024-03-25T10:33:07;92546.13;;;8.13
72405;BMP280;60395;52.020;113.548;2024-03-25T10:36:10;92541.66;;;7.99
72405;BMP280;60395;52.020;113.548;2024-03-25T10:39:13;92548.28;;;7.88
72405;BMP280;60395;52.020;113.548;2024-03-25T10:42:21;92545.16;;;7.74
72405;BMP280;60395;52.020;113.548;2024-03-25T10:45:24;92545.91;;;7.54
72405;BMP280;60395;52.020;113.548;2024-03-25T10:48:30;92543.41;;;7.40
72405;BMP280;60395;52.020;113.548;2024-03-25T10:51:35;92548.69;;;7.26
72405;BMP280;60395;52.020;113.548;2024-03-25T10:54:39;92542.25;;;7.06
72405;BMP280;60395;52.020;113.548;2024-03-25T10:57:43;92538.41;;;6.85
72405;BMP280;60395;52.020;113.548;2024-03-25T11:00:47;92544.97;;;6.68
72405;BMP280;60395;52.020;113.548;2024-03-25T11:03:50;92554.84;;;6.49
72405;BMP280;60395;52.020;113.548;2024-03-25T11:06:52;92544.44;;;6.33
72405;BMP280;60395;52.020;113.548;2024-03-25T11:10:05;92547.72;;;6.13
72405;BMP280;60395;52.020;113.548;2024-03-25T11:13:12;92552.28;;;5.97
72405;BMP280;60395;52.020;113.548;2024-03-25T11:16:28;92556.81;;;5.80
72405;BMP280;60395;52.020;113.548;2024-03-25T11:19:31;92557.44;;;5.62
72405;BMP280;60395;52.020;113.548;2024-03-25T11:22:33;92554.16;;;5.52
72405;BMP280;60395;52.020;113.548;2024-03-25T11:25:36;92547.63;;;5.43
72405;BMP280;60395;52.020;113.548;2024-03-25T11:28:38;92552.19;;;5.32
72405;BMP280;60395;52.020;113.548;2024-03-25T11:31:41;92557.34;;;5.26
72405;BMP280;60395;52.020;113.548;2024-03-25T11:34:52;92554.09;;;5.23
72405;BMP280;60395;52.020;113.548;2024-03-25T11:37:54;92556.00;;;5.11
72405;BMP280;60395;52.020;113.548;2024-03-25T11:40:56;92546.88;;;5.00
72405;BMP280;60395;52.020;113.548;2024-03-25T11:43:59;92556.56;;;4.87
72405;BMP280;60395;52.020;113.548;2024-03-25T11:47:01;92555.19;;;4.76
72405;BMP280;60395;52.020;113.548;2024-03-25T11:50:08;92562.31;;;4.69
72405;BMP280;60395;52.020;113.548;2024-03-25T11:53:10;92562.94;;;4.64
72405;BMP280;60395;52.020;113.548;2024-03-25T11:56:14;92566.19;;;4.60
72405;BMP280;60395;52.020;113.548;2024-03-25T11:59:16;92569.38;;;4.53
72405;BMP280;60395;52.020;113.548;2024-03-25T12:02:19;92567.41;;;4.47
72405;BMP280;60395;52.020;113.548;2024-03-25T12:05:22;92568.66;;;4.42
72405;BMP280;60395;52.020;113.548;2024-03-25T12:08:24;92567.34;;;4.35
72405;BMP280;60395;52.020;113.548;2024-03-25T12:11:28;92558.88;;;4.34
72405;BMP280;60395;52.020;113.548;2024-03-25T12:14:30;92563.38;;;4.30
72405;BMP280;60395;52.020;113.548;2024-03-25T12:17:33;92562.03;;;4.25
72405;BMP280;60395;52.020;113.548;2024-03-25T12:20:35;92554.88;;;4.21
72405;BMP280;60395;52.020;113.548;2024-03-25T12:23:37;92550.94;;;4.16
72405;BMP280;60395;52.020;113.548;2024-03-25T12:26:40;92559.41;;;4.21
72405;BMP280;60395;52.020;113.548;2024-03-25T12:29:42;92554.84;;;4.17
72405;BMP280;60395;52.020;113.548;2024-03-25T12:32:45;92559.38;;;4.17
72405;BMP280;60395;52.020;113.548;2024-03-25T12:35:50;92558.06;;;4.16
72405;BMP280;60395;52.020;113.548;2024-03-25T12:38:57;92556.75;;;4.15
72405;BMP280;60395;52.020;113.548;2024-03-25T12:42:04;92552.91;;;4.18
72405;BMP280;60395;52.020;113.548;2024-03-25T12:45:07;92554.19;;;4.13
72405;BMP280;60395;52.020;113.548;2024-03-25T12:48:10;92552.13;;;4.03
72405;BMP280;60395;52.020;113.548;2024-03-25T12:51:14;92555.31;;;3.96
72405;BMP280;60395;52.020;113.548;2024-03-25T12:54:17;92548.09;;;3.86
72405;BMP280;60395;52.020;113.548;2024-03-25T12:57:19;92551.25;;;3.76
72405;BMP280;60395;52.020;113.548;2024-03-25T13:00:21;92557.63;;;3.61
72405;BMP280;60395;52.020;113.548;2024-03-25T13:03:24;92557.41;;;3.39
72405;BMP280;60395;52.020;113.548;2024-03-25T13:06:26;92557.13;;;3.13
72405;BMP280;60395;52.020;113.548;2024-03-25T13:09:28;92559.47;;;2.92
72405;BMP280;60395;52.020;113.548;2024-03-25T13:12:31;92555.41;;;2.79
72405;BMP280;60395;52.020;113.548;2024-03-25T13:15:33;92546.91;;;2.75
72405;BMP280;60395;52.020;113.548;2024-03-25T13:18:35;92542.34;;;2.73
72405;BMP280;60395;52.020;113.548;2024-03-25T13:21:38;92544.91;;;2.69
72405;BMP280;60395;52.020;113.548;2024-03-25T13:24:40;92536.44;;;2.67
72405;BMP280;60395;52.020;113.548;2024-03-25T13:27:42;92535.19;;;2.70
72405;BMP280;60395;52.020;113.548;2024-03-25T13:30:44;92545.69;;;2.80
72405;BMP280;60395;52.020;113.548;2024-03-25T13:33:47;92532.06;;;2.81
72405;BMP280;60395;52.020;113.548;2024-03-25T13:36:49;92534.03;;;2.81
72405;BMP280;60395;52.020;113.548;2024-03-25T13:39:52;92535.91;;;2.74
72405;BMP280;60395;52.020;113.548;2024-03-25T13:42:55;92528.63;;;2.63
72405;BMP280;60395;52.020;113.548;2024-03-25T13:45:57;92525.19;;;2.50
72405;BMP280;60395;52.020;113.548;2024-03-25T13:48:59;92522.44;;;2.38
72405;BMP280;60395;52.020;113.548;2024-03-25T13:52:02;92521.00;;;2.27
72405;BMP280;60395;52.020;113.548;2024-03-25T13:55:05;92525.41;;;2.18
72405;BMP280;60395;52.020;113.548;2024-03-25T13:58:08;92512.34;;;2.12
72405;BMP280;60395;52.020;113.548;2024-03-25T14:01:10;92513.63;;;2.11
72405;BMP280;60395;52.020;113.548;2024-03-25T14:04:15;92513.69;;;2.13
72405;BMP280;60395;52.020;113.548;2024-03-25T14:07:18;92508.50;;;2.15
72405;BMP280;60395;52.020;113.548;2024-03-25T14:10:22;92504.59;;;2.12
72405;BMP280;60395;52.020;113.548;2024-03-25T14:13:25;92507.06;;;2.04
72405;BMP280;60395;52.020;113.548;2024-03-25T14:16:30;92507.69;;;2.02
72405;BMP280;60395;52.020;113.548;2024-03-25T14:19:32;92499.97;;;2.06
72405;BMP280;60395;52.020;113.548;2024-03-25T14:22:34;92495.50;;;2.09
72405;BMP280;60395;52.020;113.548;2024-03-25T14:25:37;92497.63;;;2.23
72405;BMP280;60395;52.020;113.548;2024-03-25T14:28:43;92501.69;;;2.38
72405;BMP280;60395;52.020;113.548;2024-03-25T14:31:45;92501.97;;;2.56
72405;BMP280;60395;52.020;113.548;2024-03-25T14:34:47;92501.47;;;2.70
72405;BMP280;60395;52.020;113.548;2024-03-25T14:37:49;92508.66;;;2.73
72405;BMP280;60395;52.020;113.548;2024-03-25T14:40:51;92504.03;;;2.68
72405;BMP280;60395;52.020;113.548;2024-03-25T14:43:54;92502.66;;;2.58
72405;BMP280;60395;52.020;113.548;2024-03-25T14:46:56;92500.53;;;2.47
72405;BMP280;60395;52.020;113.548;2024-03-25T14:50:01;92504.97;;;2.40
72405;BMP280;60395;52.020;113.548;2024-03-25T14:53:04;92505.50;;;2.31
72405;BMP280;60395;52.020;113.548;2024-03-25T14:56:06;92502.75;;;2.19
72405;BMP280;60395;52.020;113.548;2024-03-25T14:59:08;92496.09;;;2.07
72405;BMP280;60395;52.020;113.548;2024-03-25T15:02:10;92497.88;;;1.97
72405;BMP280;60395;52.020;113.548;2024-03-25T15:05:14;92500.97;;;1.85
72405;BMP280;60395;52.020;113.548;2024-03-25T15:08:16;92500.09;;;1.73
72405;BMP280;60395;52.020;113.548;2024-03-25T15:11:18;92493.59;;;1.69
72405;BMP280;60395;52.020;113.548;2024-03-25T15:14:20;92491.06;;;1.74
72405;BMP280;60395;52.020;113.548;2024-03-25T15:17:23;92488.53;;;1.78
72405;BMP280;60395;52.020;113.548;2024-03-25T15:20:25;92485.38;;;1.81
72405;BMP280;60395;52.020;113.548;2024-03-25T15:23:27;92489.91;;;1.83
72405;BMP280;60395;52.020;113.548;2024-03-25T15:26:29;92492.53;;;1.85
72405;BMP280;60395;52.020;113.548;2024-03-25T15:29:31;92489.31;;;1.88
72405;BMP280;60395;52.020;113.548;2024-03-25T15:32:33;92484.72;;;1.83
72405;BMP280;60395;52.020;113.548;2024-03-25T15:35:35;92486.38;;;1.66
72405;BMP280;60395;52.020;113.548;2024-03-25T15:38:37;92482.84;;;1.47
72405;BMP280;60395;52.020;113.548;2024-03-25T15:41:39;92479.38;;;1.33
72405;BMP280;60395;52.020;113.548;2024-03-25T15:44:40;92477.28;;;1.23
72405;BMP280;60395;52.020;113.548;2024-03-25T15:47:43;92472.50;;;1.09
72405;BMP280;60395;52.020;113.548;2024-03-25T15:50:45;92471.53;;;0.93
72405;BMP280;60395;52.020;113.548;2024-03-25T15:53:47;92475.31;;;0.88
72405;BMP280;60395;52.020;113.548;2024-03-25T15:56:49;92469.53;;;0.89
72405;BMP280;60395;52.020;113.548;2024-03-25T15:59:51;92463.75;;;0.91
72405;BMP280;60395;52.020;113.548;2024-03-25T16:02:53;92465.06;;;0.92
72405;BMP280;60395;52.020;113.548;2024-03-25T16:05:55;92458.53;;;0.89
72405;BMP280;60395;52.020;113.548;2024-03-25T16:08:57;92460.50;;;0.90
72405;BMP280;60395;52.020;113.548;2024-03-25T16:12:00;92469.31;;;0.77
72405;BMP280;60395;52.020;113.548;2024-03-25T16:15:02;92458.63;;;0.61
72405;BMP280;60395;52.020;113.548;2024-03-25T16:18:06;92459.78;;;0.54
72405;BMP280;60395;52.020;113.548;2024-03-25T16:21:15;92454.50;;;0.48
72405;BMP280;60395;52.020;113.548;2024-03-25T16:24:20;92464.97;;;0.54
72405;BMP280;60395;52.020;113.548;2024-03-25T16:27:22;92465.75;;;0.60
72405;BMP280;60395;52.020;113.548;2024-03-25T16:30:24;92453.97;;;0.53
72405;BMP280;60395;52.020;113.548;2024-03-25T16:33:26;92457.03;;;0.46
72405;BMP280;60395;52.020;113.548;2024-03-25T16:36:28;92456.78;;;0.31
72405;BMP280;60395;52.020;113.548;2024-03-25T16:39:30;92455.38;;;0.26
72405;BMP280;60395;52.020;113.548;2024-03-25T16:42:32;92459.34;;;0.33
72405;BMP280;60395;52.020;113.548;2024-03-25T16:45:34;92456.91;;;0.39
72405;BMP280;60395;52.020;113.548;2024-03-25T16:48:36;92456.97;;;0.41
72405;BMP280;60395;52.020;113.548;2024-03-25T16:51:38;92448.59;;;0.43
72405;BMP280;60395;52.020;113.548;2024-03-25T16:54:40;92449.06;;;0.35
72405;BMP280;60395;52.020;113.548;2024-03-25T16:57:43;92448.06;;;0.17
72405;BMP280;60395;52.020;113.548;2024-03-25T17:00:45;92449.75;;;0.06
72405;BMP280;60395;52.020;113.548;2024-03-25T17:03:50;92452.97;;;0.05
72405;BMP280;60395;52.020;113.548;2024-03-25T17:06:52;92454.19;;;0.02
72405;BMP280;60395;52.020;113.548;2024-03-25T17:09:54;92451.56;;;-0.01
72405;BMP280;60395;52.020;113.548;2024-03-25T17:12:56;92455.81;;;-0.13